Relevés horaires Beauvechain (Belgique)


Relevés horaires à Beauvechain - Samedi 13 Avr. 2019
Heure UTC1 Température [°C] Vent [km/h] Hum. [%] Pres.4 [hPa] Visi. [Km] Nébu. [octa] Préc.5 [mm] Cond.
2m. Res. Ros. Dir.2 Vit. Moy. Raf.3
23:00 -0.3 -0.3 -2.8 NNO 1.9 -- 3.7 83 1024.5(-0.1/3h) 19 -- -- --
22:00 0.6 0.6 -2.3 NNO 1.9 -- 5.6 81 1024.5(0.0/3h) 20 -- -- --
21:00 0.7 0.7 -2.5 N 3.7 -- 13.0 79 1024.7(0.5/3h) 20 -- -- --
20:00 1.5 1.5 -2.8 N 3.7 -- 7.4 73 1024.7(0.5/3h) 20 -- -- --
19:00 2.4 2.4 -3.2 N 3.7 -- 13.0 66 1024.5(0.3/3h) 20 -- -- --
18:00 4.6 2.8 -4.8 N 7.4 -- 16.7 50 1024(-0.2/3h) 20 -- -- --
17:00 5.6 4.5 -6.0 NE 5.6 -- 14.8 43 1023.8(-0.4/3h) 20 -- -- --
16:00 5.0 5.0 -4.5 E 3.7 -- 13.0 50 1024(-0.9/3h) 20 -- -- --
15:00 5.9 4.9 -3.4 E 5.6 -- 16.7 51 1024.2(-0.9/3h) 19 -- -- --
14:00 6.8 5 -6.8 N 9.3 -- 16.7 37 1024.2(-1.2/3h) 19 -- -- --
13:00 6.0 5 -5.3 N 5.6 -- 13.0 44 1024.9(-0.8/3h) 20 -- -- --
12:00 6.2 4.2 -4.4 NE 9.3 -- 16.7 46 1025(-0.8/3h) 20 -- -- --
11:00 5.5 3.4 -5.7 NE 9.3 -- 14.8 44 1025.5(-0.6/3h) 20 -- -- --
10:00 5.5 3.9 -5.5 N 7.4 -- 16.7 45 1025.7(-0.8/3h) 18 -- -- --
09:00 3.6 1.2 -3.7 NNE 9.3 -- 14.8 59 1026(-0.3/3h) 20 -- -- --
08:00 2.8 1.3 -1.2 NE 5.6 -- 11.1 75 1026.4(0.2/3h) 19 -- -- --
07:00 0.8 -0.9 -0.9 NE 5.6 -- 9.3 88 1026.7(0.8/3h) 11 -- -- --
06:00 -1.1 -1.1 -2.2 N 3.7 -- 7.4 92 1026.7(0.9/3h) 9 -- -- --
05:00 -1.8 -1.8 -3.5 N 3.7 -- 7.4 88 1026.4(0.5/3h) 11 -- -- --
04:00 -1.5 -3.6 -3.4 N 5.6 -- 7.4 87 1026(0.1/3h) 14 -- -- --
03:00 -1.1 -1.1 -3.3 N 3.7 -- 5.6 85 1025.7(-0.3/3h) 15 -- -- --
02:00 -0.4 -0.4 -3.0 N 3.7 -- 5.6 83 1025.7(-0.3/3h) 20 -- -- --
01:00 0.2 0.2 -2.5 NNE 3.7 -- 5.6 82 1025.7(-0.3/3h) 20 -- -- --
00:00 0.8 0.8 -2.1 N 3.7 -- 11.1 81 1026(0.0/3h) 20 -- -- --

1 Coordinated Universal Time. Actuellement il est 10:00 locale et 09:00 UTC.

2 Le vent souffle depuis la direction indiquée vers la direction oposée.

3 Les rafales max. sont disponible 40 min après l'heure du relevé.

4 Pour les stations d'altitude (plus de 600m) le géopotentiel du niveau le plus proche de la pression obligatoire est indiqué.

5 Les stations disposant d'un diffuseur peuvent indiquer "trace". Cela signifie que des précipitations ont touchés le sol mais que la quantité est inférieure à 0.1 mm.

Récapitulatif de la journée
Température [°C] Vent [km/h] Ensoleillement4 [h] Precipitations totale5 [mm] Pression [Hpa]
Min1 Max.2 Moy.3 Max. Min Max.
-2.0 7.7 0 16.7 0 h 0 min 0 1023.8 1026.7

1 Température minimale relevée entre 18:00 UTC la veille et 18:00 UTC le jour donné.

2 Température maximale relevée entre 06:00 UTC le jour donné et 06:00 UTC le lendemain.

3 Vent moyen de la journée basé sur les relevés horaires.

4 Ensoleillement en heures relevé entre 06:00 UTC la veille et 06:00 UTC le jour donné.

5 Précipitations totales tombées entre 06:00 UTC la jour donné et 06:00 UTC le lendemain.

Graphiques horaires